sensor_id;sensor_type;location;lat;lon;timestamp;P1;durP1;ratioP1;P2;durP2;ratioP2
84260;SDS011;74405;44.868;18.808;2024-03-02T00:00:05;71.93;;;40.10;;
84260;SDS011;74405;44.868;18.808;2024-03-02T00:02:40;72.35;;;40.42;;
84260;SDS011;74405;44.868;18.808;2024-03-02T00:05:06;72.97;;;41.88;;
84260;SDS011;74405;44.868;18.808;2024-03-02T00:07:32;77.25;;;41.40;;
84260;SDS011;74405;44.868;18.808;2024-03-02T00:09:57;86.32;;;45.88;;
84260;SDS011;74405;44.868;18.808;2024-03-02T00:12:23;92.82;;;47.03;;
84260;SDS011;74405;44.868;18.808;2024-03-02T00:14:48;89.00;;;46.85;;
84260;SDS011;74405;44.868;18.808;2024-03-02T00:17:17;100.07;;;52.35;;
84260;SDS011;74405;44.868;18.808;2024-03-02T00:22:11;74.18;;;40.60;;
84260;SDS011;74405;44.868;18.808;2024-03-02T00:24:37;65.93;;;36.55;;
84260;SDS011;74405;44.868;18.808;2024-03-02T00:27:03;67.35;;;37.05;;
84260;SDS011;74405;44.868;18.808;2024-03-02T00:29:29;59.53;;;34.72;;
84260;SDS011;74405;44.868;18.808;2024-03-02T00:31:54;62.15;;;35.08;;
84260;SDS011;74405;44.868;18.808;2024-03-02T00:34:21;60.70;;;35.10;;
84260;SDS011;74405;44.868;18.808;2024-03-02T00:36:46;66.15;;;34.50;;
84260;SDS011;74405;44.868;18.808;2024-03-02T00:39:14;58.15;;;33.97;;
84260;SDS011;74405;44.868;18.808;2024-03-02T00:41:40;60.97;;;34.83;;
84260;SDS011;74405;44.868;18.808;2024-03-02T00:44:07;60.22;;;34.40;;
84260;SDS011;74405;44.868;18.808;2024-03-02T00:49:03;54.67;;;31.52;;
84260;SDS011;74405;44.868;18.808;2024-03-02T00:51:30;51.03;;;32.60;;
84260;SDS011;74405;44.868;18.808;2024-03-02T00:53:57;53.90;;;32.00;;
84260;SDS011;74405;44.868;18.808;2024-03-02T00:56:23;59.50;;;32.97;;
84260;SDS011;74405;44.868;18.808;2024-03-02T00:58:49;55.45;;;31.33;;
84260;SDS011;74405;44.868;18.808;2024-03-02T01:01:15;56.47;;;32.05;;
84260;SDS011;74405;44.868;18.808;2024-03-02T01:03:41;51.78;;;31.17;;
84260;SDS011;74405;44.868;18.808;2024-03-02T01:06:07;59.88;;;32.40;;
84260;SDS011;74405;44.868;18.808;2024-03-02T01:08:33;55.97;;;31.80;;
84260;SDS011;74405;44.868;18.808;2024-03-02T01:10:58;61.60;;;33.50;;
84260;SDS011;74405;44.868;18.808;2024-03-02T01:13:24;65.28;;;33.20;;
84260;SDS011;74405;44.868;18.808;2024-03-02T01:15:50;57.00;;;30.33;;
84260;SDS011;74405;44.868;18.808;2024-03-02T01:18:15;55.03;;;30.98;;
84260;SDS011;74405;44.868;18.808;2024-03-02T01:20:41;57.33;;;31.98;;
84260;SDS011;74405;44.868;18.808;2024-03-02T01:23:06;65.95;;;32.15;;
84260;SDS011;74405;44.868;18.808;2024-03-02T01:25:32;59.45;;;29.40;;
84260;SDS011;74405;44.868;18.808;2024-03-02T01:27:57;56.13;;;28.70;;
84260;SDS011;74405;44.868;18.808;2024-03-02T01:30:23;53.97;;;27.63;;
84260;SDS011;74405;44.868;18.808;2024-03-02T01:32:48;44.25;;;23.70;;
84260;SDS011;74405;44.868;18.808;2024-03-02T01:35:13;46.42;;;24.05;;
84260;SDS011;74405;44.868;18.808;2024-03-02T01:37:40;35.40;;;20.40;;
84260;SDS011;74405;44.868;18.808;2024-03-02T01:40:06;37.28;;;20.45;;
84260;SDS011;74405;44.868;18.808;2024-03-02T01:42:37;33.78;;;19.42;;
84260;SDS011;74405;44.868;18.808;2024-03-02T01:45:04;36.60;;;19.45;;
84260;SDS011;74405;44.868;18.808;2024-03-02T01:47:29;31.35;;;18.70;;
84260;SDS011;74405;44.868;18.808;2024-03-02T01:49:55;27.08;;;17.35;;
84260;SDS011;74405;44.868;18.808;2024-03-02T01:52:20;30.77;;;17.58;;
84260;SDS011;74405;44.868;18.808;2024-03-02T01:54:46;28.70;;;16.63;;
84260;SDS011;74405;44.868;18.808;2024-03-02T01:57:11;26.88;;;16.63;;
84260;SDS011;74405;44.868;18.808;2024-03-02T01:59:37;30.13;;;16.63;;
84260;SDS011;74405;44.868;18.808;2024-03-02T02:02:02;31.67;;;17.90;;
84260;SDS011;74405;44.868;18.808;2024-03-02T02:04:28;30.35;;;18.13;;
84260;SDS011;74405;44.868;18.808;2024-03-02T02:06:54;32.60;;;18.50;;
84260;SDS011;74405;44.868;18.808;2024-03-02T02:09:20;45.63;;;19.95;;
84260;SDS011;74405;44.868;18.808;2024-03-02T02:11:46;110.90;;;25.75;;
84260;SDS011;74405;44.868;18.808;2024-03-02T02:14:12;43.97;;;19.40;;
84260;SDS011;74405;44.868;18.808;2024-03-02T02:16:37;32.92;;;17.80;;
84260;SDS011;74405;44.868;18.808;2024-03-02T02:19:02;33.17;;;17.58;;
84260;SDS011;74405;44.868;18.808;2024-03-02T02:21:28;34.30;;;18.38;;
84260;SDS011;74405;44.868;18.808;2024-03-02T02:23:53;33.47;;;17.80;;
84260;SDS011;74405;44.868;18.808;2024-03-02T02:26:19;36.58;;;18.48;;
84260;SDS011;74405;44.868;18.808;2024-03-02T02:28:44;30.85;;;17.30;;
84260;SDS011;74405;44.868;18.808;2024-03-02T02:31:15;26.23;;;16.23;;
84260;SDS011;74405;44.868;18.808;2024-03-02T02:33:41;26.35;;;16.20;;
84260;SDS011;74405;44.868;18.808;2024-03-02T02:36:06;29.85;;;16.50;;
84260;SDS011;74405;44.868;18.808;2024-03-02T02:38:32;37.78;;;17.58;;
84260;SDS011;74405;44.868;18.808;2024-03-02T02:40:58;34.03;;;16.85;;
84260;SDS011;74405;44.868;18.808;2024-03-02T02:43:23;31.17;;;17.02;;
84260;SDS011;74405;44.868;18.808;2024-03-02T02:45:49;31.17;;;16.58;;
84260;SDS011;74405;44.868;18.808;2024-03-02T02:48:14;29.48;;;16.23;;
84260;SDS011;74405;44.868;18.808;2024-03-02T02:50:41;29.98;;;17.27;;
84260;SDS011;74405;44.868;18.808;2024-03-02T02:53:06;26.50;;;15.50;;
84260;SDS011;74405;44.868;18.808;2024-03-02T02:55:35;30.42;;;16.92;;
84260;SDS011;74405;44.868;18.808;2024-03-02T02:58:03;30.42;;;15.65;;
84260;SDS011;74405;44.868;18.808;2024-03-02T03:00:28;32.60;;;17.75;;
84260;SDS011;74405;44.868;18.808;2024-03-02T03:02:53;33.15;;;16.90;;
84260;SDS011;74405;44.868;18.808;2024-03-02T03:05:19;33.05;;;16.77;;
84260;SDS011;74405;44.868;18.808;2024-03-02T03:07:44;28.20;;;17.15;;
84260;SDS011;74405;44.868;18.808;2024-03-02T03:10:10;30.60;;;16.70;;
84260;SDS011;74405;44.868;18.808;2024-03-02T03:12:36;28.92;;;17.77;;
84260;SDS011;74405;44.868;18.808;2024-03-02T03:15:01;30.38;;;17.50;;
84260;SDS011;74405;44.868;18.808;2024-03-02T03:17:28;27.30;;;15.82;;
84260;SDS011;74405;44.868;18.808;2024-03-02T03:19:53;27.38;;;15.60;;
84260;SDS011;74405;44.868;18.808;2024-03-02T03:22:20;28.10;;;17.10;;
84260;SDS011;74405;44.868;18.808;2024-03-02T03:24:45;28.30;;;17.13;;
84260;SDS011;74405;44.868;18.808;2024-03-02T03:27:11;28.80;;;17.13;;
84260;SDS011;74405;44.868;18.808;2024-03-02T03:29:39;31.73;;;17.48;;
84260;SDS011;74405;44.868;18.808;2024-03-02T03:32:05;32.35;;;16.23;;
84260;SDS011;74405;44.868;18.808;2024-03-02T03:34:32;29.15;;;16.88;;
84260;SDS011;74405;44.868;18.808;2024-03-02T03:36:57;29.67;;;16.80;;
84260;SDS011;74405;44.868;18.808;2024-03-02T03:39:23;31.65;;;17.75;;
84260;SDS011;74405;44.868;18.808;2024-03-02T03:41:49;35.83;;;18.65;;
84260;SDS011;74405;44.868;18.808;2024-03-02T03:44:14;34.13;;;19.00;;
84260;SDS011;74405;44.868;18.808;2024-03-02T03:46:40;32.17;;;18.67;;
84260;SDS011;74405;44.868;18.808;2024-03-02T03:49:06;34.45;;;20.08;;
84260;SDS011;74405;44.868;18.808;2024-03-02T03:51:33;45.03;;;22.20;;
84260;SDS011;74405;44.868;18.808;2024-03-02T03:53:59;38.53;;;20.98;;
84260;SDS011;74405;44.868;18.808;2024-03-02T03:56:24;33.65;;;19.00;;
84260;SDS011;74405;44.868;18.808;2024-03-02T03:58:50;31.92;;;20.10;;
84260;SDS011;74405;44.868;18.808;2024-03-02T04:01:15;33.53;;;18.58;;
84260;SDS011;74405;44.868;18.808;2024-03-02T04:03:41;29.65;;;17.02;;
84260;SDS011;74405;44.868;18.808;2024-03-02T04:06:06;31.83;;;17.95;;
84260;SDS011;74405;44.868;18.808;2024-03-02T04:08:32;31.48;;;19.33;;
84260;SDS011;74405;44.868;18.808;2024-03-02T04:10:57;32.15;;;18.67;;
84260;SDS011;74405;44.868;18.808;2024-03-02T04:13:23;34.60;;;19.27;;
84260;SDS011;74405;44.868;18.808;2024-03-02T04:15:48;32.95;;;17.58;;
84260;SDS011;74405;44.868;18.808;2024-03-02T04:18:13;30.83;;;18.75;;
84260;SDS011;74405;44.868;18.808;2024-03-02T04:20:39;33.83;;;20.10;;
84260;SDS011;74405;44.868;18.808;2024-03-02T04:23:04;29.23;;;18.05;;
84260;SDS011;74405;44.868;18.808;2024-03-02T04:25:30;35.38;;;18.85;;
84260;SDS011;74405;44.868;18.808;2024-03-02T04:27:55;29.17;;;17.00;;
84260;SDS011;74405;44.868;18.808;2024-03-02T04:30:21;30.45;;;18.40;;
84260;SDS011;74405;44.868;18.808;2024-03-02T04:32:46;37.08;;;19.60;;
84260;SDS011;74405;44.868;18.808;2024-03-02T04:35:12;35.13;;;19.50;;
84260;SDS011;74405;44.868;18.808;2024-03-02T04:37:38;33.33;;;18.67;;
84260;SDS011;74405;44.868;18.808;2024-03-02T04:40:04;39.08;;;23.17;;
84260;SDS011;74405;44.868;18.808;2024-03-02T04:42:35;39.05;;;22.40;;
84260;SDS011;74405;44.868;18.808;2024-03-02T04:45:00;35.90;;;22.00;;
84260;SDS011;74405;44.868;18.808;2024-03-02T04:47:26;38.95;;;21.23;;
84260;SDS011;74405;44.868;18.808;2024-03-02T04:49:51;35.22;;;21.67;;
84260;SDS011;74405;44.868;18.808;2024-03-02T04:52:17;34.33;;;20.67;;
84260;SDS011;74405;44.868;18.808;2024-03-02T04:54:42;37.83;;;20.60;;
84260;SDS011;74405;44.868;18.808;2024-03-02T04:57:26;36.13;;;21.08;;
84260;SDS011;74405;44.868;18.808;2024-03-02T04:59:52;38.10;;;21.38;;
84260;SDS011;74405;44.868;18.808;2024-03-02T05:02:17;33.80;;;20.48;;
84260;SDS011;74405;44.868;18.808;2024-03-02T05:04:43;41.45;;;21.67;;
84260;SDS011;74405;44.868;18.808;2024-03-02T05:07:08;40.67;;;20.95;;
84260;SDS011;74405;44.868;18.808;2024-03-02T05:09:34;37.25;;;21.98;;
84260;SDS011;74405;44.868;18.808;2024-03-02T05:11:59;38.53;;;20.80;;
84260;SDS011;74405;44.868;18.808;2024-03-02T05:14:43;34.30;;;21.13;;
84260;SDS011;74405;44.868;18.808;2024-03-02T05:17:09;35.05;;;20.75;;
84260;SDS011;74405;44.868;18.808;2024-03-02T05:19:34;36.88;;;20.55;;
84260;SDS011;74405;44.868;18.808;2024-03-02T05:22:00;35.58;;;22.33;;
84260;SDS011;74405;44.868;18.808;2024-03-02T05:24:25;36.05;;;20.73;;
84260;SDS011;74405;44.868;18.808;2024-03-02T05:26:53;34.03;;;21.60;;
84260;SDS011;74405;44.868;18.808;2024-03-02T05:29:19;46.22;;;26.67;;
84260;SDS011;74405;44.868;18.808;2024-03-02T05:31:45;54.15;;;31.23;;
84260;SDS011;74405;44.868;18.808;2024-03-02T05:34:10;43.70;;;25.00;;
84260;SDS011;74405;44.868;18.808;2024-03-02T05:36:35;43.00;;;23.88;;
84260;SDS011;74405;44.868;18.808;2024-03-02T05:39:02;42.78;;;23.15;;
84260;SDS011;74405;44.868;18.808;2024-03-02T05:41:30;38.25;;;23.65;;
84260;SDS011;74405;44.868;18.808;2024-03-02T05:43:55;37.58;;;23.67;;
84260;SDS011;74405;44.868;18.808;2024-03-02T05:46:21;39.40;;;22.85;;
84260;SDS011;74405;44.868;18.808;2024-03-02T05:48:47;39.65;;;24.90;;
84260;SDS011;74405;44.868;18.808;2024-03-02T05:51:12;41.67;;;24.83;;
84260;SDS011;74405;44.868;18.808;2024-03-02T05:53:38;40.78;;;24.42;;
84260;SDS011;74405;44.868;18.808;2024-03-02T05:56:04;38.83;;;23.80;;
84260;SDS011;74405;44.868;18.808;2024-03-02T05:58:30;42.08;;;21.95;;
84260;SDS011;74405;44.868;18.808;2024-03-02T06:01:14;39.70;;;23.27;;
84260;SDS011;74405;44.868;18.808;2024-03-02T06:03:40;39.50;;;23.67;;
84260;SDS011;74405;44.868;18.808;2024-03-02T06:06:05;39.10;;;22.98;;
84260;SDS011;74405;44.868;18.808;2024-03-02T06:08:31;42.30;;;23.05;;
84260;SDS011;74405;44.868;18.808;2024-03-02T06:10:56;43.47;;;23.85;;
84260;SDS011;74405;44.868;18.808;2024-03-02T06:13:22;50.75;;;26.48;;
84260;SDS011;74405;44.868;18.808;2024-03-02T06:15:48;41.30;;;23.98;;
84260;SDS011;74405;44.868;18.808;2024-03-02T06:18:13;42.47;;;24.17;;
84260;SDS011;74405;44.868;18.808;2024-03-02T06:20:39;42.22;;;24.50;;
84260;SDS011;74405;44.868;18.808;2024-03-02T06:23:04;39.58;;;23.85;;
84260;SDS011;74405;44.868;18.808;2024-03-02T06:25:30;41.72;;;23.65;;
84260;SDS011;74405;44.868;18.808;2024-03-02T06:27:56;40.63;;;23.15;;
84260;SDS011;74405;44.868;18.808;2024-03-02T06:30:21;41.03;;;24.05;;
84260;SDS011;74405;44.868;18.808;2024-03-02T06:32:46;38.13;;;23.15;;
84260;SDS011;74405;44.868;18.808;2024-03-02T06:35:12;41.72;;;24.92;;
84260;SDS011;74405;44.868;18.808;2024-03-02T06:37:38;41.67;;;22.33;;
84260;SDS011;74405;44.868;18.808;2024-03-02T06:40:03;39.35;;;23.42;;
84260;SDS011;74405;44.868;18.808;2024-03-02T06:42:29;40.03;;;24.10;;
84260;SDS011;74405;44.868;18.808;2024-03-02T06:44:58;40.78;;;25.20;;
84260;SDS011;74405;44.868;18.808;2024-03-02T06:47:24;46.05;;;26.85;;
84260;SDS011;74405;44.868;18.808;2024-03-02T06:49:50;42.60;;;25.27;;
84260;SDS011;74405;44.868;18.808;2024-03-02T06:52:16;39.90;;;27.02;;
84260;SDS011;74405;44.868;18.808;2024-03-02T06:54:41;43.72;;;24.33;;
84260;SDS011;74405;44.868;18.808;2024-03-02T06:57:06;42.67;;;23.52;;
84260;SDS011;74405;44.868;18.808;2024-03-02T06:59:32;35.00;;;23.17;;
84260;SDS011;74405;44.868;18.808;2024-03-02T07:01:58;37.05;;;22.73;;
84260;SDS011;74405;44.868;18.808;2024-03-02T07:04:24;39.53;;;22.33;;
84260;SDS011;74405;44.868;18.808;2024-03-02T07:06:49;38.50;;;22.30;;
84260;SDS011;74405;44.868;18.808;2024-03-02T07:09:16;44.17;;;25.27;;
84260;SDS011;74405;44.868;18.808;2024-03-02T07:11:42;44.63;;;26.73;;
84260;SDS011;74405;44.868;18.808;2024-03-02T07:14:07;46.17;;;27.98;;
84260;SDS011;74405;44.868;18.808;2024-03-02T07:16:33;54.83;;;33.08;;
84260;SDS011;74405;44.868;18.808;2024-03-02T07:19:00;48.80;;;29.63;;
84260;SDS011;74405;44.868;18.808;2024-03-02T07:21:27;48.67;;;31.83;;
84260;SDS011;74405;44.868;18.808;2024-03-02T07:23:52;55.45;;;32.45;;
84260;SDS011;74405;44.868;18.808;2024-03-02T07:26:18;44.25;;;28.15;;
84260;SDS011;74405;44.868;18.808;2024-03-02T07:28:44;49.80;;;31.35;;
84260;SDS011;74405;44.868;18.808;2024-03-02T07:31:10;49.03;;;29.23;;
84260;SDS011;74405;44.868;18.808;2024-03-02T07:33:35;65.50;;;36.60;;
84260;SDS011;74405;44.868;18.808;2024-03-02T07:36:01;58.40;;;36.22;;
84260;SDS011;74405;44.868;18.808;2024-03-02T07:38:27;46.47;;;27.17;;
84260;SDS011;74405;44.868;18.808;2024-03-02T07:40:53;43.63;;;27.05;;
84260;SDS011;74405;44.868;18.808;2024-03-02T07:43:18;43.92;;;25.95;;
84260;SDS011;74405;44.868;18.808;2024-03-02T07:45:47;46.50;;;26.83;;
84260;SDS011;74405;44.868;18.808;2024-03-02T07:48:13;51.80;;;28.33;;
84260;SDS011;74405;44.868;18.808;2024-03-02T07:50:38;49.60;;;28.63;;
84260;SDS011;74405;44.868;18.808;2024-03-02T07:53:04;45.78;;;26.75;;
84260;SDS011;74405;44.868;18.808;2024-03-02T07:55:30;48.92;;;28.15;;
84260;SDS011;74405;44.868;18.808;2024-03-02T07:57:56;45.80;;;25.90;;
84260;SDS011;74405;44.868;18.808;2024-03-02T08:00:21;44.00;;;24.85;;
84260;SDS011;74405;44.868;18.808;2024-03-02T08:02:47;41.45;;;24.95;;
84260;SDS011;74405;44.868;18.808;2024-03-02T08:05:13;41.30;;;25.10;;
84260;SDS011;74405;44.868;18.808;2024-03-02T08:07:40;41.03;;;25.05;;
84260;SDS011;74405;44.868;18.808;2024-03-02T08:10:06;39.83;;;23.83;;
84260;SDS011;74405;44.868;18.808;2024-03-02T08:12:32;36.55;;;21.70;;
84260;SDS011;74405;44.868;18.808;2024-03-02T08:14:57;31.10;;;20.50;;
84260;SDS011;74405;44.868;18.808;2024-03-02T08:17:23;36.83;;;22.42;;
84260;SDS011;74405;44.868;18.808;2024-03-02T08:19:50;32.55;;;20.20;;
84260;SDS011;74405;44.868;18.808;2024-03-02T08:22:15;27.75;;;18.23;;
84260;SDS011;74405;44.868;18.808;2024-03-02T08:24:40;29.23;;;18.63;;
84260;SDS011;74405;44.868;18.808;2024-03-02T08:27:06;32.63;;;19.98;;
84260;SDS011;74405;44.868;18.808;2024-03-02T08:29:32;32.47;;;17.92;;
84260;SDS011;74405;44.868;18.808;2024-03-02T08:31:57;29.30;;;19.40;;
84260;SDS011;74405;44.868;18.808;2024-03-02T08:34:22;30.95;;;19.75;;
84260;SDS011;74405;44.868;18.808;2024-03-02T08:36:48;30.35;;;19.30;;
84260;SDS011;74405;44.868;18.808;2024-03-02T08:39:13;32.90;;;20.02;;
84260;SDS011;74405;44.868;18.808;2024-03-02T08:41:42;30.17;;;19.02;;
84260;SDS011;74405;44.868;18.808;2024-03-02T08:44:08;32.50;;;18.98;;
84260;SDS011;74405;44.868;18.808;2024-03-02T08:46:34;29.92;;;19.20;;
84260;SDS011;74405;44.868;18.808;2024-03-02T08:48:59;30.55;;;19.55;;
84260;SDS011;74405;44.868;18.808;2024-03-02T08:51:25;26.27;;;17.10;;
84260;SDS011;74405;44.868;18.808;2024-03-02T08:53:50;29.35;;;17.08;;
84260;SDS011;74405;44.868;18.808;2024-03-02T08:56:16;31.92;;;19.08;;
84260;SDS011;74405;44.868;18.808;2024-03-02T08:58:42;33.45;;;20.30;;
84260;SDS011;74405;44.868;18.808;2024-03-02T09:01:08;27.08;;;17.85;;
84260;SDS011;74405;44.868;18.808;2024-03-02T09:03:33;26.50;;;17.02;;
84260;SDS011;74405;44.868;18.808;2024-03-02T09:06:00;26.20;;;16.63;;
84260;SDS011;74405;44.868;18.808;2024-03-02T09:08:25;28.05;;;16.75;;
84260;SDS011;74405;44.868;18.808;2024-03-02T09:10:51;24.63;;;17.30;;
84260;SDS011;74405;44.868;18.808;2024-03-02T09:13:17;25.98;;;17.48;;
84260;SDS011;74405;44.868;18.808;2024-03-02T09:15:45;27.25;;;17.75;;
84260;SDS011;74405;44.868;18.808;2024-03-02T09:18:11;24.60;;;16.33;;
84260;SDS011;74405;44.868;18.808;2024-03-02T09:20:36;24.48;;;16.10;;
84260;SDS011;74405;44.868;18.808;2024-03-02T09:23:02;24.30;;;15.63;;
84260;SDS011;74405;44.868;18.808;2024-03-02T09:25:27;25.60;;;16.20;;
84260;SDS011;74405;44.868;18.808;2024-03-02T09:27:52;23.35;;;14.43;;
84260;SDS011;74405;44.868;18.808;2024-03-02T09:30:18;24.20;;;13.30;;
84260;SDS011;74405;44.868;18.808;2024-03-02T09:32:43;21.23;;;13.68;;
84260;SDS011;74405;44.868;18.808;2024-03-02T09:35:09;23.00;;;13.80;;
84260;SDS011;74405;44.868;18.808;2024-03-02T09:37:35;21.80;;;14.38;;
84260;SDS011;74405;44.868;18.808;2024-03-02T09:40:01;20.90;;;13.48;;
84260;SDS011;74405;44.868;18.808;2024-03-02T09:42:26;18.95;;;12.15;;
84260;SDS011;74405;44.868;18.808;2024-03-02T09:44:52;16.70;;;9.13;;
84260;SDS011;74405;44.868;18.808;2024-03-02T09:47:18;13.25;;;9.20;;
84260;SDS011;74405;44.868;18.808;2024-03-02T09:49:43;16.63;;;8.80;;
84260;SDS011;74405;44.868;18.808;2024-03-02T09:52:10;12.95;;;9.20;;
84260;SDS011;74405;44.868;18.808;2024-03-02T09:54:35;12.73;;;8.30;;
84260;SDS011;74405;44.868;18.808;2024-03-02T09:57:01;12.40;;;8.88;;
84260;SDS011;74405;44.868;18.808;2024-03-02T09:59:27;11.55;;;8.00;;
84260;SDS011;74405;44.868;18.808;2024-03-02T10:02:00;12.70;;;7.97;;
84260;SDS011;74405;44.868;18.808;2024-03-02T10:04:26;14.27;;;8.68;;
84260;SDS011;74405;44.868;18.808;2024-03-02T10:07:14;10.32;;;7.10;;
84260;SDS011;74405;44.868;18.808;2024-03-02T10:09:38;23.15;;;14.57;;
84260;SDS011;74405;44.868;18.808;2024-03-02T10:12:04;16.38;;;10.20;;
84260;SDS011;74405;44.868;18.808;2024-03-02T10:14:30;16.92;;;9.23;;
84260;SDS011;74405;44.868;18.808;2024-03-02T10:16:55;14.75;;;9.88;;
84260;SDS011;74405;44.868;18.808;2024-03-02T10:19:26;16.38;;;10.00;;
84260;SDS011;74405;44.868;18.808;2024-03-02T10:21:54;14.52;;;10.48;;
84260;SDS011;74405;44.868;18.808;2024-03-02T10:24:20;12.27;;;7.28;;
84260;SDS011;74405;44.868;18.808;2024-03-02T10:26:45;9.38;;;7.22;;
84260;SDS011;74405;44.868;18.808;2024-03-02T10:29:11;11.20;;;7.03;;
84260;SDS011;74405;44.868;18.808;2024-03-02T10:31:40;11.55;;;7.32;;
84260;SDS011;74405;44.868;18.808;2024-03-02T10:34:07;10.13;;;6.47;;
84260;SDS011;74405;44.868;18.808;2024-03-02T10:36:35;11.30;;;7.68;;
84260;SDS011;74405;44.868;18.808;2024-03-02T10:39:02;11.07;;;7.00;;
84260;SDS011;74405;44.868;18.808;2024-03-02T10:41:29;10.20;;;6.75;;
84260;SDS011;74405;44.868;18.808;2024-03-02T10:43:56;11.93;;;6.22;;
84260;SDS011;74405;44.868;18.808;2024-03-02T10:46:28;8.25;;;5.85;;
84260;SDS011;74405;44.868;18.808;2024-03-02T10:48:55;8.00;;;6.30;;
84260;SDS011;74405;44.868;18.808;2024-03-02T10:51:20;11.75;;;6.50;;
84260;SDS011;74405;44.868;18.808;2024-03-02T10:53:46;9.50;;;5.53;;
84260;SDS011;74405;44.868;18.808;2024-03-02T10:56:11;10.40;;;6.03;;
84260;SDS011;74405;44.868;18.808;2024-03-02T10:58:41;9.60;;;6.70;;
84260;SDS011;74405;44.868;18.808;2024-03-02T11:01:07;12.27;;;5.65;;
84260;SDS011;74405;44.868;18.808;2024-03-02T11:03:33;7.68;;;6.40;;
84260;SDS011;74405;44.868;18.808;2024-03-02T11:06:00;7.45;;;5.60;;
84260;SDS011;74405;44.868;18.808;2024-03-02T11:08:25;8.65;;;5.57;;
84260;SDS011;74405;44.868;18.808;2024-03-02T11:10:53;8.88;;;6.78;;
84260;SDS011;74405;44.868;18.808;2024-03-02T11:13:22;8.07;;;6.13;;
84260;SDS011;74405;44.868;18.808;2024-03-02T11:15:49;7.85;;;6.03;;
84260;SDS011;74405;44.868;18.808;2024-03-02T11:18:17;8.60;;;5.97;;
84260;SDS011;74405;44.868;18.808;2024-03-02T11:20:42;7.65;;;5.13;;
84260;SDS011;74405;44.868;18.808;2024-03-02T11:23:08;10.75;;;5.85;;
84260;SDS011;74405;44.868;18.808;2024-03-02T11:25:34;8.85;;;5.25;;
84260;SDS011;74405;44.868;18.808;2024-03-02T11:28:01;9.27;;;5.53;;
84260;SDS011;74405;44.868;18.808;2024-03-02T11:33:04;7.65;;;5.40;;
84260;SDS011;74405;44.868;18.808;2024-03-02T11:35:33;11.32;;;6.75;;
84260;SDS011;74405;44.868;18.808;2024-03-02T11:37:58;9.93;;;6.50;;
84260;SDS011;74405;44.868;18.808;2024-03-02T11:40:25;9.05;;;6.95;;
84260;SDS011;74405;44.868;18.808;2024-03-02T11:42:51;8.43;;;6.63;;
84260;SDS011;74405;44.868;18.808;2024-03-02T11:45:16;7.85;;;5.95;;
84260;SDS011;74405;44.868;18.808;2024-03-02T11:47:46;7.75;;;5.40;;
84260;SDS011;74405;44.868;18.808;2024-03-02T11:50:15;7.88;;;6.13;;
84260;SDS011;74405;44.868;18.808;2024-03-02T11:52:42;9.30;;;6.47;;
84260;SDS011;74405;44.868;18.808;2024-03-02T11:55:08;10.10;;;6.13;;
84260;SDS011;74405;44.868;18.808;2024-03-02T11:57:34;10.25;;;5.88;;
84260;SDS011;74405;44.868;18.808;2024-03-02T12:00:00;9.18;;;6.28;;
84260;SDS011;74405;44.868;18.808;2024-03-02T12:02:30;10.90;;;6.15;;
84260;SDS011;74405;44.868;18.808;2024-03-02T12:04:56;10.20;;;5.85;;
84260;SDS011;74405;44.868;18.808;2024-03-02T12:07:22;7.35;;;5.82;;
84260;SDS011;74405;44.868;18.808;2024-03-02T12:09:49;7.65;;;5.68;;
84260;SDS011;74405;44.868;18.808;2024-03-02T12:12:15;9.40;;;5.68;;
84260;SDS011;74405;44.868;18.808;2024-03-02T12:14:52;7.18;;;5.40;;
84260;SDS011;74405;44.868;18.808;2024-03-02T12:17:20;7.68;;;5.05;;
84260;SDS011;74405;44.868;18.808;2024-03-02T12:19:46;7.25;;;4.90;;
84260;SDS011;74405;44.868;18.808;2024-03-02T12:22:11;8.02;;;5.32;;
84260;SDS011;74405;44.868;18.808;2024-03-02T12:24:37;7.57;;;5.00;;
84260;SDS011;74405;44.868;18.808;2024-03-02T12:27:03;9.77;;;5.85;;
84260;SDS011;74405;44.868;18.808;2024-03-02T12:29:29;7.45;;;5.13;;
84260;SDS011;74405;44.868;18.808;2024-03-02T12:31:54;7.20;;;4.63;;
84260;SDS011;74405;44.868;18.808;2024-03-02T12:34:21;7.75;;;5.07;;
84260;SDS011;74405;44.868;18.808;2024-03-02T12:36:46;6.90;;;4.47;;
84260;SDS011;74405;44.868;18.808;2024-03-02T12:39:21;8.18;;;4.63;;
84260;SDS011;74405;44.868;18.808;2024-03-02T12:41:48;8.95;;;4.18;;
84260;SDS011;74405;44.868;18.808;2024-03-02T12:44:16;7.18;;;4.03;;
84260;SDS011;74405;44.868;18.808;2024-03-02T12:46:41;7.38;;;4.25;;
84260;SDS011;74405;44.868;18.808;2024-03-02T12:49:10;7.97;;;4.25;;
84260;SDS011;74405;44.868;18.808;2024-03-02T12:51:37;7.35;;;4.60;;
84260;SDS011;74405;44.868;18.808;2024-03-02T12:54:03;5.68;;;4.47;;
84260;SDS011;74405;44.868;18.808;2024-03-02T12:56:30;7.47;;;3.90;;
84260;SDS011;74405;44.868;18.808;2024-03-02T12:58:56;6.78;;;4.30;;
84260;SDS011;74405;44.868;18.808;2024-03-02T13:01:21;6.10;;;4.22;;
84260;SDS011;74405;44.868;18.808;2024-03-02T13:03:50;6.68;;;3.90;;
84260;SDS011;74405;44.868;18.808;2024-03-02T13:06:18;6.07;;;3.95;;
84260;SDS011;74405;44.868;18.808;2024-03-02T13:08:45;4.45;;;3.47;;
84260;SDS011;74405;44.868;18.808;2024-03-02T13:11:11;6.60;;;4.10;;
84260;SDS011;74405;44.868;18.808;2024-03-02T13:13:36;7.20;;;4.18;;
84260;SDS011;74405;44.868;18.808;2024-03-02T13:16:03;7.57;;;4.68;;
84260;SDS011;74405;44.868;18.808;2024-03-02T13:18:29;10.18;;;5.68;;
84260;SDS011;74405;44.868;18.808;2024-03-02T13:20:54;6.03;;;3.90;;
84260;SDS011;74405;44.868;18.808;2024-03-02T13:23:21;6.80;;;4.20;;
84260;SDS011;74405;44.868;18.808;2024-03-02T13:25:46;7.80;;;3.90;;
84260;SDS011;74405;44.868;18.808;2024-03-02T13:28:12;5.85;;;3.35;;
84260;SDS011;74405;44.868;18.808;2024-03-02T13:30:38;7.90;;;4.45;;
84260;SDS011;74405;44.868;18.808;2024-03-02T13:33:04;6.60;;;3.88;;
84260;SDS011;74405;44.868;18.808;2024-03-02T13:35:30;6.55;;;3.83;;
84260;SDS011;74405;44.868;18.808;2024-03-02T13:37:55;6.55;;;3.72;;
84260;SDS011;74405;44.868;18.808;2024-03-02T13:40:21;5.97;;;3.53;;
84260;SDS011;74405;44.868;18.808;2024-03-02T13:42:48;7.05;;;3.28;;
84260;SDS011;74405;44.868;18.808;2024-03-02T13:45:15;6.10;;;4.22;;
84260;SDS011;74405;44.868;18.808;2024-03-02T13:47:41;5.50;;;3.55;;
84260;SDS011;74405;44.868;18.808;2024-03-02T13:50:07;6.70;;;3.63;;
84260;SDS011;74405;44.868;18.808;2024-03-02T13:52:32;6.45;;;3.50;;
84260;SDS011;74405;44.868;18.808;2024-03-02T13:54:58;7.35;;;3.80;;
84260;SDS011;74405;44.868;18.808;2024-03-02T13:57:23;8.98;;;4.85;;
84260;SDS011;74405;44.868;18.808;2024-03-02T13:59:49;4.85;;;3.60;;
84260;SDS011;74405;44.868;18.808;2024-03-02T14:02:14;6.50;;;3.60;;
84260;SDS011;74405;44.868;18.808;2024-03-02T14:04:40;6.32;;;3.78;;
84260;SDS011;74405;44.868;18.808;2024-03-02T14:07:05;10.50;;;3.83;;
84260;SDS011;74405;44.868;18.808;2024-03-02T14:09:34;6.72;;;4.03;;
84260;SDS011;74405;44.868;18.808;2024-03-02T14:12:00;4.45;;;3.17;;
84260;SDS011;74405;44.868;18.808;2024-03-02T14:14:28;7.60;;;3.97;;
84260;SDS011;74405;44.868;18.808;2024-03-02T14:16:56;7.50;;;3.90;;